Time;durP1;ratioP1;P1;durP2;ratioP2;P2;SDS_P1;SDS_P2;PMS_P1;PMS_P2;Temp;Humidity;BMP_temperature;BMP_pressure;BME280_temperature;BME280_humidity;BME280_pressure;Samples;Min_cycle;Max_cycle;Signal;HPM_P1;HPM_P2
2022/03/18 17:55:15;;;;;;;5.47;1.80;;;13.00;76.80;;;;;;5074154;28;20333;-59
2022/03/18 17:57:40;;;;;;;7.25;2.17;;;12.80;77.00;;;;;;5063251;28;20625;-61
2022/03/18 18:00:07;;;;;;;6.32;2.20;;;12.80;78.10;;;;;;5064784;28;20037;-61
2022/03/18 18:02:34;;;;;;;11.30;5.50;;;12.70;78.30;;;;;;5061817;28;20040;-61
2022/03/18 18:05:00;;;;;;;11.07;3.88;;;12.70;79.70;;;;;;5063678;28;20048;-61
2022/03/18 18:07:25;;;;;;;5.68;2.72;;;12.70;81.40;;;;;;5065639;28;20036;-61
2022/03/18 18:09:51;;;;;;;15.52;7.25;;;12.70;83.40;;;;;;5067820;28;20040;-61
2022/03/18 18:12:20;;;;;;;8.20;3.67;;;12.60;84.50;;;;;;5066850;28;20033;-61
2022/03/18 18:14:46;;;;;;;91.85;55.15;;;12.60;85.10;;;;;;5064605;28;20516;-59
2022/03/18 18:17:12;;;;;;;20.65;7.50;;;12.60;86.40;;;;;;5069385;28;20068;-58
2022/03/18 18:22:23;;;;;;;8.80;4.28;;;12.50;89.40;;;;;;5064048;28;20035;-59
2022/03/18 18:24:51;;;;;;;11.48;4.53;;;12.50;90.90;;;;;;5071759;28;20163;-60
2022/03/18 18:27:20;;;;;;;13.82;5.10;;;12.40;92.10;;;;;;5070467;28;20029;-59
2022/03/18 18:29:46;;;;;;;8.98;3.95;;;12.40;93.10;;;;;;5065025;28;20039;-60
2022/03/18 18:32:12;;;;;;;9.85;4.72;;;12.30;94.00;;;;;;5061279;28;20065;-59
2022/03/18 18:34:38;;;;;;;9.63;4.28;;;12.30;95.00;;;;;;5069653;28;20139;-59
2022/03/18 18:37:04;;;;;;;13.02;5.10;;;12.20;95.80;;;;;;5064302;28;20071;-60
2022/03/18 18:39:30;;;;;;;12.93;4.63;;;12.10;96.90;;;;;;5062709;28;21569;-61
2022/03/18 18:41:57;;;;;;;13.90;5.70;;;12.10;97.30;;;;;;5065974;28;20032;-60
2022/03/18 18:44:23;;;;;;;11.65;5.45;;;12.00;97.70;;;;;;5063870;28;20028;-61
2022/03/18 18:46:50;;;;;;;15.10;5.20;;;12.00;98.40;;;;;;5064671;28;20024;-60
2022/03/18 18:49:17;;;;;;;14.10;5.50;;;12.00;98.80;;;;;;5059931;28;20067;-60
2022/03/18 18:51:45;;;;;;;15.70;6.30;;;12.00;99.20;;;;;;5066746;28;20096;-61
2022/03/18 18:54:13;;;;;;;11.13;4.93;;;11.90;99.50;;;;;;5059614;28;20021;-60
2022/03/18 18:56:39;;;;;;;9.82;5.57;;;11.90;99.90;;;;;;5066012;28;20032;-60
2022/03/18 18:59:05;;;;;;;17.98;5.28;;;11.90;99.90;;;;;;5070771;28;20035;-61
2022/03/18 19:01:34;;;;;;;10.40;5.28;;;11.90;99.90;;;;;;5065535;28;20394;-61
2022/03/18 19:04:00;;;;;;;12.10;4.45;;;11.80;99.90;;;;;;5066469;28;20032;-61
2022/03/18 19:06:28;;;;;;;16.45;4.72;;;11.80;99.90;;;;;;5053923;28;20048;-60
2022/03/18 19:08:57;;;;;;;12.90;5.18;;;11.70;99.90;;;;;;5052084;28;20025;-60
2022/03/18 19:11:23;;;;;;;11.38;4.95;;;11.70;99.90;;;;;;5048567;28;20024;-61
2022/03/18 19:13:49;;;;;;;19.80;6.63;;;11.60;99.90;;;;;;5045483;28;20695;-60
2022/03/18 19:16:15;;;;;;;13.02;5.22;;;11.60;99.90;;;;;;5059149;28;20029;-60
2022/03/18 19:18:41;;;;;;;12.07;5.72;;;11.60;99.90;;;;;;5049890;28;20486;-60
2022/03/18 19:21:08;;;;;;;12.88;5.18;;;11.60;99.90;;;;;;5050537;28;20162;-60
2022/03/18 19:23:35;;;;;;;19.40;5.90;;;11.50;99.90;;;;;;5050433;28;20400;-60
2022/03/18 19:26:01;;;;;;;14.20;5.25;;;11.40;99.90;;;;;;5053669;28;20021;-61
2022/03/18 19:28:27;;;;;;;13.55;5.63;;;11.40;99.90;;;;;;5050396;28;20035;-59
2022/03/18 19:30:54;;;;;;;11.68;5.38;;;11.30;99.90;;;;;;5053867;28;20482;-60
2022/03/18 19:33:19;;;;;;;11.13;5.50;;;11.20;99.90;;;;;;5057192;28;20533;-60
2022/03/18 19:35:45;;;;;;;17.75;5.18;;;11.20;99.90;;;;;;5050467;28;20128;-60
2022/03/18 19:38:11;;;;;;;12.57;5.40;;;11.20;99.90;;;;;;5052660;28;20031;-61
2022/03/18 19:40:37;;;;;;;15.20;6.00;;;11.10;99.90;;;;;;5049517;28;20078;-60
2022/03/18 19:43:04;;;;;;;15.15;6.32;;;11.10;99.90;;;;;;5050198;28;20405;-60
2022/03/18 19:45:30;;;;;;;13.95;5.57;;;11.10;99.90;;;;;;5048253;28;20025;-61
2022/03/18 19:47:55;;;;;;;13.38;5.85;;;11.00;99.90;;;;;;5050314;28;20711;-61
2022/03/18 19:50:21;;;;;;;12.80;5.82;;;11.00;99.90;;;;;;5054657;28;20029;-60
2022/03/18 19:52:47;;;;;;;13.38;6.45;;;11.00;99.90;;;;;;5048604;28;20021;-61
2022/03/18 19:55:13;;;;;;;15.48;5.60;;;11.00;99.90;;;;;;5072357;22;20043;-60
2022/03/18 20:03:08;;;;;;;15.05;7.13;;;10.90;99.90;;;;;;5068200;28;20734;-60
2022/03/18 20:05:34;;;;;;;11.05;5.97;;;10.80;99.90;;;;;;5068403;28;20108;-61
2022/03/18 20:08:04;;;;;;;15.25;5.32;;;10.80;99.90;;;;;;5066926;28;20025;-61
2022/03/18 20:10:34;;;;;;;15.82;5.70;;;10.80;99.90;;;;;;5067757;28;20029;-57
2022/03/18 20:13:00;;;;;;;19.40;5.78;;;10.80;99.90;;;;;;5064254;28;20020;-59
2022/03/18 20:15:27;;;;;;;13.52;6.35;;;10.80;99.90;;;;;;5045825;28;20047;-63
2022/03/18 20:17:53;;;;;;;14.13;5.47;;;10.80;99.90;;;;;;5066482;28;20031;-61
2022/03/18 20:20:19;;;;;;;13.63;6.20;;;10.80;99.90;;;;;;5067463;28;20062;-61
2022/03/18 20:22:46;;;;;;;14.40;5.47;;;10.70;99.90;;;;;;5072252;28;20499;-61
2022/03/18 20:25:13;;;;;;;20.73;6.07;;;10.70;99.90;;;;;;5067200;28;20029;-61
2022/03/18 20:27:40;;;;;;;15.88;6.10;;;10.70;99.90;;;;;;5067067;28;20036;-63
2022/03/18 20:30:08;;;;;;;13.20;5.25;;;10.60;99.90;;;;;;5067574;28;20079;-62
2022/03/18 20:32:34;;;;;;;14.00;4.70;;;10.60;99.90;;;;;;5067014;28;20020;-64
2022/03/18 20:35:00;;;;;;;14.18;5.25;;;10.60;99.90;;;;;;5059140;28;20024;-62
2022/03/18 20:37:27;;;;;;;13.45;4.93;;;10.50;99.90;;;;;;5062232;28;20012;-63
2022/03/18 20:39:53;;;;;;;15.18;5.30;;;10.50;99.90;;;;;;5063735;28;20474;-61
2022/03/18 20:42:18;;;;;;;19.10;6.20;;;10.50;99.90;;;;;;5066587;28;20525;-63
2022/03/18 20:44:44;;;;;;;11.45;4.68;;;10.40;99.90;;;;;;5066609;28;20149;-61
2022/03/18 20:47:10;;;;;;;14.07;5.00;;;10.40;99.90;;;;;;5066537;28;20032;-63
2022/03/18 20:49:36;;;;;;;21.88;5.57;;;10.40;99.90;;;;;;5066281;28;20032;-62
2022/03/18 20:52:02;;;;;;;15.65;6.03;;;10.40;99.90;;;;;;5066428;28;20036;-61
2022/03/18 20:54:28;;;;;;;13.88;7.20;;;10.40;99.90;;;;;;5066042;28;20032;-62
2022/03/18 20:56:53;;;;;;;13.10;5.03;;;10.30;99.90;;;;;;5064910;28;20032;-62
2022/03/18 20:59:19;;;;;;;14.32;4.95;;;10.30;99.90;;;;;;5065660;28;20027;-61
2022/03/18 21:01:45;;;;;;;11.85;5.18;;;10.20;99.90;;;;;;5067398;28;20059;-63
2022/03/18 21:04:11;;;;;;;17.20;5.35;;;10.20;99.90;;;;;;5065762;28;20020;-63
2022/03/18 21:06:37;;;;;;;16.67;5.55;;;10.20;99.90;;;;;;5067038;28;20497;-64
2022/03/18 21:09:03;;;;;;;16.70;5.40;;;10.10;99.90;;;;;;5065931;28;20110;-63
2022/03/18 21:11:28;;;;;;;14.43;5.68;;;10.00;99.90;;;;;;5067017;28;20037;-64
2022/03/18 21:13:58;;;;;;;12.82;5.32;;;10.00;99.90;;;;;;5064777;28;20059;-61
2022/03/18 21:16:26;;;;;;;12.77;5.72;;;9.90;99.90;;;;;;5064555;28;20166;-63
2022/03/18 21:18:52;;;;;;;10.82;5.13;;;9.80;99.90;;;;;;5046826;28;20074;-62
2022/03/18 21:21:18;;;;;;;13.95;5.35;;;9.80;99.90;;;;;;5065264;28;20493;-65
2022/03/18 21:23:45;;;;;;;15.13;6.28;;;9.70;99.90;;;;;;5064485;28;20025;-59
2022/03/18 21:31:43;;;;;;;12.45;5.50;;;9.50;99.90;;;;;;5065980;28;20116;-64
2022/03/18 21:34:10;;;;;;;9.98;5.00;;;9.50;99.90;;;;;;5047383;28;20024;-64
2022/03/18 21:36:36;;;;;;;14.98;4.95;;;9.50;99.90;;;;;;5066526;28;20070;-63
2022/03/18 21:39:03;;;;;;;12.23;5.28;;;9.40;99.90;;;;;;5062886;28;20078;-63
2022/03/18 21:41:28;;;;;;;12.80;4.85;;;9.30;99.90;;;;;;5063839;28;20029;-61
2022/03/18 21:43:54;;;;;;;11.20;5.25;;;9.30;99.90;;;;;;5062919;28;20059;-63
2022/03/18 21:46:20;;;;;;;15.52;5.93;;;9.30;99.90;;;;;;5065116;28;20029;-61
2022/03/18 21:48:45;;;;;;;12.50;5.25;;;9.30;99.90;;;;;;5066282;28;20625;-64
2022/03/18 21:51:11;;;;;;;17.08;5.20;;;9.30;99.90;;;;;;5066356;28;20028;-64
2022/03/18 21:53:36;;;;;;;17.52;5.90;;;9.20;99.90;;;;;;5065163;28;20035;-63
2022/03/18 21:56:02;;;;;;;10.48;5.45;;;9.20;99.90;;;;;;5066025;28;20028;-63
2022/03/18 21:58:28;;;;;;;13.38;5.43;;;9.20;99.90;;;;;;5069094;28;20108;-64
2022/03/18 22:00:53;;;;;;;12.82;4.70;;;9.20;99.90;;;;;;5065839;28;20035;-63
2022/03/18 22:03:19;;;;;;;16.90;5.45;;;9.30;99.90;;;;;;5067474;28;20071;-65
2022/03/18 22:05:45;;;;;;;12.93;4.82;;;9.20;99.90;;;;;;5066838;28;20024;-64
2022/03/18 22:08:11;;;;;;;13.35;4.80;;;9.20;99.90;;;;;;5064221;28;20029;-64
2022/03/18 22:10:36;;;;;;;12.73;5.28;;;9.20;99.90;;;;;;5068524;28;20039;-63
2022/03/18 22:13:02;;;;;;;14.73;5.45;;;9.10;99.90;;;;;;5073555;28;20040;-63
2022/03/18 22:15:28;;;;;;;14.13;5.50;;;9.10;99.90;;;;;;5069062;28;20028;-63
2022/03/18 22:17:54;;;;;;;14.30;4.95;;;9.00;99.90;;;;;;5068920;28;20025;-63
2022/03/18 22:20:22;;;;;;;15.85;5.65;;;9.00;99.90;;;;;;5069644;28;20021;-65
2022/03/18 22:22:49;;;;;;;7.90;4.70;;;9.00;99.90;;;;;;5071414;28;20024;-64
2022/03/18 22:25:16;;;;;;;12.77;4.95;;;9.00;99.90;;;;;;5068765;28;20028;-60
2022/03/18 22:27:43;;;;;;;16.20;5.50;;;8.90;99.90;;;;;;5070769;28;20108;-60
2022/03/18 22:30:10;;;;;;;12.27;5.28;;;9.00;99.90;;;;;;5074666;28;20021;-62
2022/03/18 22:32:37;;;;;;;9.90;4.55;;;9.00;99.90;;;;;;5068964;28;20503;-62
2022/03/18 22:35:05;;;;;;;14.23;4.47;;;9.10;99.90;;;;;;5069128;28;20044;-65
2022/03/18 22:37:30;;;;;;;13.00;4.13;;;9.10;99.90;;;;;;5069293;28;20059;-63
2022/03/18 22:39:57;;;;;;;14.90;4.72;;;9.10;99.90;;;;;;5069093;28;20105;-62
2022/03/18 22:42:23;;;;;;;16.42;5.47;;;9.00;99.90;;;;;;5072726;28;20035;-63
2022/03/18 22:44:48;;;;;;;12.90;4.45;;;9.00;99.90;;;;;;5073533;28;20029;-61
2022/03/18 22:47:15;;;;;;;12.30;5.47;;;8.90;99.90;;;;;;5072612;28;20406;-61
2022/03/18 22:49:40;;;;;;;11.25;4.90;;;8.90;99.90;;;;;;5074346;28;20035;-60
2022/03/18 22:52:08;;;;;;;13.25;4.75;;;8.80;99.90;;;;;;5071975;28;20044;-63
2022/03/18 22:54:33;;;;;;;12.27;5.18;;;8.80;99.90;;;;;;5073107;28;20470;-62
2022/03/18 22:56:59;;;;;;;12.07;5.35;;;8.70;99.90;;;;;;5072384;28;20044;-65
2022/03/18 22:59:25;;;;;;;12.43;5.70;;;8.60;99.90;;;;;;5075475;28;20029;-63
2022/03/18 23:01:51;;;;;;;14.70;5.70;;;8.50;99.90;;;;;;5072639;28;20028;-63
2022/03/18 23:04:17;;;;;;;14.13;5.53;;;8.50;99.90;;;;;;5072754;28;20021;-65
2022/03/18 23:06:43;;;;;;;11.35;5.15;;;8.40;99.90;;;;;;5073382;28;20028;-60
2022/03/18 23:09:09;;;;;;;11.23;4.88;;;8.40;99.90;;;;;;5072810;28;20565;-58
2022/03/18 23:14:19;;;;;;;15.23;5.45;;;8.20;99.90;;;;;;5080902;28;20405;-63
2022/03/18 23:16:45;;;;;;;20.50;5.65;;;8.20;99.90;;;;;;5070984;28;20029;-62
2022/03/18 23:19:10;;;;;;;13.68;5.78;;;8.20;99.90;;;;;;5071994;28;20468;-63
2022/03/18 23:21:36;;;;;;;13.18;5.00;;;8.10;99.90;;;;;;5070828;28;20016;-63
2022/03/18 23:24:02;;;;;;;10.77;5.15;;;8.00;99.90;;;;;;5072115;28;20478;-65
2022/03/18 23:26:27;;;;;;;14.07;5.30;;;7.90;99.90;;;;;;5073948;28;20060;-61
2022/03/18 23:28:54;;;;;;;20.15;5.72;;;7.80;99.90;;;;;;5070972;28;20067;-62
2022/03/18 23:31:20;;;;;;;10.45;5.75;;;7.70;99.90;;;;;;5072309;28;20032;-62
2022/03/18 23:33:46;;;;;;;17.30;5.65;;;7.70;99.90;;;;;;5071268;28;20120;-62
2022/03/18 23:36:12;;;;;;;14.02;5.47;;;7.70;99.90;;;;;;5071504;28;20131;-62
2022/03/18 23:38:38;;;;;;;11.52;5.00;;;7.70;99.90;;;;;;5070820;28;20455;-62
2022/03/18 23:41:04;;;;;;;12.32;5.03;;;7.70;99.90;;;;;;5071554;28;20100;-63
2022/03/18 23:43:30;;;;;;;13.02;5.55;;;7.70;99.90;;;;;;5070601;28;20029;-63
2022/03/18 23:45:56;;;;;;;21.30;5.07;;;7.70;99.90;;;;;;5071859;28;20047;-63
2022/03/18 23:48:21;;;;;;;17.05;5.05;;;7.70;99.90;;;;;;5070618;28;20139;-63
2022/03/18 23:50:47;;;;;;;15.95;5.40;;;7.60;99.90;;;;;;5068265;28;20029;-63
2022/03/18 23:53:12;;;;;;;15.23;5.25;;;7.50;99.90;;;;;;5070832;28;20032;-63
2022/03/18 23:55:40;;;;;;;10.63;4.82;;;7.50;99.90;;;;;;5073656;28;20081;-63
2022/03/18 23:58:05;;;;;;;10.80;5.18;;;7.40;99.90;;;;;;5070874;28;20039;-62
